Time;durP1;ratioP1;P1;durP2;ratioP2;P2;SDS_P1;SDS_P2;PMS_P1;PMS_P2;Temp;Humidity;BMP_temperature;BMP_pressure;BME280_temperature;BME280_humidity;BME280_pressure;Samples;Min_cycle;Max_cycle;Signal;HPM_P1;HPM_P2
2021/04/04 00:00:27;;;;;;;16.30;5.50;;;5.50;67.20;;;;;;5059501;28;20195;-75
2021/04/04 00:02:53;;;;;;;11.00;5.20;;;5.50;66.90;;;;;;5065698;28;20581;-73
2021/04/04 00:05:20;;;;;;;9.30;5.40;;;5.50;66.90;;;;;;5068105;28;20478;-74
2021/04/04 00:07:45;;;;;;;10.00;5.10;;;5.50;66.90;;;;;;5092511;28;20426;-73
2021/04/04 00:10:13;;;;;;;16.17;5.40;;;5.50;66.10;;;;;;5073596;28;20947;-74
2021/04/04 00:12:39;;;;;;;11.70;5.70;;;5.40;65.80;;;;;;5068725;28;20176;-74
2021/04/04 00:15:08;;;;;;;15.90;4.70;;;5.30;66.10;;;;;;5068164;28;20989;-72
2021/04/04 00:17:34;;;;;;;8.10;4.10;;;5.20;67.30;;;;;;5067023;28;20434;-72
2021/04/04 00:19:59;;;;;;;9.10;4.33;;;5.30;67.70;;;;;;5062054;28;20445;-74
2021/04/04 00:22:25;;;;;;;9.93;4.23;;;5.10;68.20;;;;;;5071202;28;20187;-74
2021/04/04 00:24:51;;;;;;;8.70;4.37;;;5.10;68.50;;;;;;5086934;28;20211;-73
2021/04/04 00:27:17;;;;;;;8.57;5.30;;;5.10;68.30;;;;;;5072787;28;20438;-72
2021/04/04 00:29:43;;;;;;;9.30;4.00;;;5.20;67.60;;;;;;5072479;28;20259;-70
2021/04/04 00:32:08;;;;;;;8.17;4.07;;;5.20;66.00;;;;;;5074062;28;20425;-72
2021/04/04 00:34:34;;;;;;;4.67;3.20;;;5.20;65.00;;;;;;5072544;28;20180;-71
2021/04/04 00:37:00;;;;;;;7.73;3.57;;;5.20;64.70;;;;;;5072862;28;20212;-72
2021/04/04 00:39:28;;;;;;;14.43;4.00;;;5.10;64.40;;;;;;5073359;28;20184;-71
2021/04/04 00:41:53;;;;;;;8.80;3.37;;;5.10;65.30;;;;;;5073088;28;20413;-70
2021/04/04 00:44:19;;;;;;;6.63;3.50;;;5.10;65.10;;;;;;5072399;28;21253;-70
2021/04/04 00:46:45;;;;;;;6.63;3.80;;;5.10;65.30;;;;;;5071660;28;20541;-69
2021/04/04 00:49:11;;;;;;;7.57;3.60;;;5.00;65.40;;;;;;5072023;28;20534;-72
2021/04/04 00:51:37;;;;;;;8.90;4.10;;;5.00;67.00;;;;;;5074100;28;20188;-72
2021/04/04 00:54:04;;;;;;;8.33;4.30;;;5.00;68.50;;;;;;5075535;28;20433;-71
2021/04/04 00:56:30;;;;;;;10.37;4.93;;;4.90;69.10;;;;;;5071435;28;20536;-71
2021/04/04 00:58:58;;;;;;;7.43;4.23;;;4.80;69.50;;;;;;5071285;28;20426;-71
2021/04/04 01:01:26;;;;;;;7.13;4.30;;;4.80;69.70;;;;;;5070975;28;20434;-71
2021/04/04 01:03:52;;;;;;;9.73;4.33;;;4.70;69.90;;;;;;5067702;28;20466;-71
2021/04/04 01:06:18;;;;;;;7.43;4.53;;;4.70;69.50;;;;;;5070021;28;20913;-70
2021/04/04 01:08:44;;;;;;;8.43;3.70;;;4.60;69.40;;;;;;5072506;28;20432;-70
2021/04/04 01:11:15;;;;;;;8.23;4.10;;;4.60;69.20;;;;;;5061468;28;20484;-71
2021/04/04 01:14:06;;;;;;;6.30;4.17;;;4.60;68.90;;;;;;5072916;28;20476;-71
2021/04/04 01:16:39;;;;;;;8.50;4.10;;;4.60;68.60;;;;;;5072423;28;20442;-70
2021/04/04 01:19:45;;;;;;;16.47;4.00;;;4.50;68.90;;;;;;5072700;28;20468;-70
2021/04/04 01:22:37;;;;;;;12.10;4.70;;;4.50;69.70;;;;;;5072582;28;20414;-70
2021/04/04 01:25:08;;;;;;;8.57;4.70;;;4.50;70.20;;;;;;5067624;28;20471;-71
2021/04/04 01:27:52;;;;;;;12.27;4.40;;;4.50;70.70;;;;;;5071692;28;20418;-70
2021/04/04 01:30:20;;;;;;;6.57;3.83;;;4.50;70.50;;;;;;5070940;28;20998;-70
2021/04/04 01:32:48;;;;;;;9.53;3.80;;;4.50;71.40;;;;;;5072237;28;20418;-71
2021/04/04 01:35:17;;;;;;;9.43;4.20;;;4.50;71.60;;;;;;5071364;28;20418;-71
2021/04/04 01:37:44;;;;;;;10.70;4.87;;;4.40;71.60;;;;;;5072217;28;20418;-71
2021/04/04 01:40:14;;;;;;;8.27;4.13;;;4.40;72.00;;;;;;5072100;28;20453;-69
2021/04/04 01:42:43;;;;;;;7.50;4.33;;;4.40;72.30;;;;;;5067374;28;20423;-71
2021/04/04 01:45:10;;;;;;;10.43;4.20;;;4.40;72.30;;;;;;5069403;28;20465;-70
2021/04/04 01:47:37;;;;;;;9.10;3.80;;;4.30;72.00;;;;;;5072169;28;20425;-71
2021/04/04 01:50:06;;;;;;;7.70;4.47;;;4.30;72.30;;;;;;5071424;28;20505;-69
2021/04/04 01:52:34;;;;;;;9.97;4.93;;;4.20;72.70;;;;;;5072906;28;20439;-71
2021/04/04 01:55:00;;;;;;;8.57;4.93;;;4.10;73.20;;;;;;5071600;28;20438;-71
2021/04/04 01:57:30;;;;;;;9.13;4.50;;;4.10;73.30;;;;;;5071481;28;20430;-69
2021/04/04 01:59:57;;;;;;;10.53;4.40;;;4.10;73.50;;;;;;5053844;28;20415;-70
2021/04/04 02:02:24;;;;;;;7.80;4.10;;;4.00;73.90;;;;;;5063932;28;20485;-71
2021/04/04 02:04:51;;;;;;;15.20;4.43;;;4.00;74.20;;;;;;5070325;28;20469;-71
2021/04/04 02:07:17;;;;;;;11.93;4.90;;;4.00;74.30;;;;;;5066507;28;20497;-71
2021/04/04 02:09:45;;;;;;;8.37;4.80;;;4.00;74.50;;;;;;5070716;28;20452;-71
2021/04/04 02:12:11;;;;;;;6.50;4.37;;;4.00;74.50;;;;;;5070992;28;20793;-70
2021/04/04 02:14:41;;;;;;;8.33;4.10;;;4.00;74.30;;;;;;5070359;28;21121;-71
2021/04/04 02:17:08;;;;;;;8.20;4.17;;;4.10;74.00;;;;;;5071019;28;20499;-70
2021/04/04 02:19:34;;;;;;;11.00;4.93;;;4.10;73.60;;;;;;5069581;28;20806;-70
2021/04/04 02:22:01;;;;;;;10.30;4.83;;;4.10;73.30;;;;;;5071245;28;21138;-71
2021/04/04 02:24:29;;;;;;;7.27;4.23;;;4.10;72.70;;;;;;5069775;28;20457;-72
2021/04/04 02:26:56;;;;;;;11.73;4.50;;;4.10;72.40;;;;;;5068841;28;20997;-72
2021/04/04 02:29:23;;;;;;;9.83;4.00;;;4.00;72.30;;;;;;5074194;28;20414;-72
2021/04/04 02:31:58;;;;;;;8.93;4.13;;;4.00;73.50;;;;;;5071549;28;20912;-69
2021/04/04 02:34:32;;;;;;;7.97;4.40;;;3.90;73.90;;;;;;5071006;28;20508;-70
2021/04/04 02:36:58;;;;;;;12.53;4.10;;;3.80;74.00;;;;;;5070084;28;20450;-71
2021/04/04 02:39:32;;;;;;;6.83;3.83;;;3.70;74.50;;;;;;5051158;28;20419;-69
2021/04/04 02:41:59;;;;;;;10.20;4.10;;;3.60;74.60;;;;;;5070034;28;20425;-72
2021/04/04 02:44:27;;;;;;;6.83;4.20;;;3.50;75.10;;;;;;5069582;28;20461;-71
2021/04/04 02:46:56;;;;;;;5.63;3.77;;;3.50;75.50;;;;;;5057368;28;20461;-70
2021/04/04 02:49:27;;;;;;;8.50;4.67;;;3.40;75.90;;;;;;5071151;28;20422;-71
2021/04/04 02:51:56;;;;;;;9.37;4.70;;;3.50;75.90;;;;;;5075165;28;20430;-73
2021/04/04 02:54:25;;;;;;;10.33;4.40;;;3.50;76.40;;;;;;5073785;28;20423;-70
2021/04/04 02:56:53;;;;;;;6.80;4.00;;;3.50;76.50;;;;;;5071920;28;20991;-70
2021/04/04 02:59:46;;;;;;;8.13;3.93;;;3.50;76.50;;;;;;5080100;28;20422;-72
2021/04/04 03:02:15;;;;;;;7.20;4.13;;;3.50;76.50;;;;;;5069645;28;20437;-71
2021/04/04 03:04:43;;;;;;;8.40;3.67;;;3.60;76.20;;;;;;5076265;28;20809;-74
2021/04/04 03:07:14;;;;;;;11.90;4.60;;;3.60;76.20;;;;;;5070751;28;20494;-71
2021/04/04 03:09:44;;;;;;;5.23;4.10;;;3.50;76.50;;;;;;5067166;28;20426;-70
2021/04/04 03:12:10;;;;;;;8.30;4.40;;;3.50;76.70;;;;;;5063399;28;20446;-71
2021/04/04 03:14:38;;;;;;;14.87;4.83;;;3.50;76.70;;;;;;5069702;28;20422;-69
2021/04/04 03:17:05;;;;;;;7.13;3.63;;;3.60;76.20;;;;;;5088731;28;20461;-71
2021/04/04 03:19:34;;;;;;;10.70;3.90;;;3.50;76.10;;;;;;5060650;28;20426;-72
2021/04/04 03:22:01;;;;;;;8.00;4.43;;;3.50;76.20;;;;;;5070386;28;20422;-72
2021/04/04 03:24:29;;;;;;;7.17;3.73;;;3.50;76.50;;;;;;5070130;28;20462;-70
2021/04/04 03:26:55;;;;;;;10.10;4.50;;;3.30;76.50;;;;;;5070469;28;20437;-70
2021/04/04 03:29:21;;;;;;;9.13;4.30;;;3.30;77.00;;;;;;5070731;28;20425;-69
2021/04/04 03:31:48;;;;;;;9.57;5.20;;;3.40;77.00;;;;;;5070552;28;20422;-68
2021/04/04 03:34:16;;;;;;;5.93;3.70;;;3.30;76.70;;;;;;5068537;28;20191;-70
2021/04/04 03:36:42;;;;;;;13.70;3.93;;;3.30;77.00;;;;;;5070281;28;21129;-68
2021/04/04 03:39:09;;;;;;;7.50;3.93;;;3.30;77.00;;;;;;5071367;28;20479;-71
2021/04/04 03:41:35;;;;;;;8.23;4.40;;;3.20;77.00;;;;;;5072974;28;20418;-69
2021/04/04 03:44:02;;;;;;;15.67;4.23;;;3.10;76.80;;;;;;5073867;28;20458;-70
2021/04/04 03:46:31;;;;;;;6.07;4.50;;;3.10;77.30;;;;;;5068657;28;20959;-68
2021/04/04 03:48:58;;;;;;;11.73;4.57;;;3.10;77.80;;;;;;5070467;28;20414;-70
2021/04/04 03:51:25;;;;;;;7.03;4.17;;;3.00;78.30;;;;;;5073858;28;21183;-71
2021/04/04 03:53:55;;;;;;;6.13;4.13;;;3.20;78.10;;;;;;5073602;28;20429;-70
2021/04/04 03:56:25;;;;;;;7.27;4.03;;;3.20;78.00;;;;;;5067770;28;20876;-71
2021/04/04 03:58:52;;;;;;;17.13;4.60;;;3.20;77.80;;;;;;5064774;28;20497;-72
2021/04/04 04:01:21;;;;;;;6.77;4.20;;;3.10;77.60;;;;;;5060320;28;20422;-70
2021/04/04 04:03:49;;;;;;;8.77;3.80;;;3.10;77.60;;;;;;5073162;28;20882;-72
2021/04/04 04:06:16;;;;;;;7.88;4.18;;;3.00;77.60;;;;;;5073829;28;20438;-72
2021/04/04 04:08:42;;;;;;;7.60;4.20;;;2.90;77.60;;;;;;5073519;28;20191;-70
2021/04/04 04:11:10;;;;;;;9.13;3.93;;;2.90;77.70;;;;;;5062163;28;20785;-71
2021/04/04 04:13:37;;;;;;;7.67;3.80;;;2.90;77.80;;;;;;5073405;28;20434;-70
2021/04/04 04:16:04;;;;;;;11.17;4.20;;;2.90;78.30;;;;;;5072888;28;20452;-70
2021/04/04 04:18:30;;;;;;;10.03;4.27;;;2.90;78.60;;;;;;5089324;28;20437;-72
2021/04/04 04:20:56;;;;;;;9.07;4.70;;;2.90;78.70;;;;;;5073241;28;20418;-71
2021/04/04 04:23:23;;;;;;;7.67;3.53;;;2.90;79.00;;;;;;5073191;28;20811;-71
2021/04/04 04:25:52;;;;;;;8.60;4.10;;;3.00;79.00;;;;;;5072696;28;20200;-70
2021/04/04 04:28:18;;;;;;;7.13;4.30;;;3.00;79.00;;;;;;5074833;28;20432;-72
2021/04/04 04:30:44;;;;;;;8.73;3.70;;;2.90;78.90;;;;;;5076759;28;20438;-72
2021/04/04 04:33:14;;;;;;;11.07;3.63;;;2.90;79.20;;;;;;5073510;28;20468;-71
2021/04/04 04:35:43;;;;;;;8.13;3.47;;;3.00;79.20;;;;;;5072650;28;20438;-72
2021/04/04 04:38:10;;;;;;;8.80;3.80;;;3.00;79.00;;;;;;5073343;28;21098;-70
2021/04/04 04:40:37;;;;;;;6.70;3.97;;;3.10;78.60;;;;;;5073236;28;20787;-71
2021/04/04 04:43:06;;;;;;;10.80;3.93;;;3.10;78.30;;;;;;5076665;28;20572;-70
2021/04/04 04:45:36;;;;;;;7.63;3.87;;;3.10;78.10;;;;;;5072463;28;20484;-71
2021/04/04 04:48:03;;;;;;;8.17;4.13;;;3.10;78.10;;;;;;5072986;28;20426;-72
2021/04/04 04:50:30;;;;;;;10.80;3.97;;;3.10;78.10;;;;;;5072802;28;20476;-71
2021/04/04 04:52:59;;;;;;;5.90;3.57;;;3.10;77.70;;;;;;5072540;28;20438;-70
2021/04/04 04:55:26;;;;;;;10.70;3.80;;;3.10;77.30;;;;;;5072118;28;20453;-70
2021/04/04 04:57:55;;;;;;;7.40;4.20;;;3.10;77.10;;;;;;5073532;28;20919;-70
2021/04/04 05:00:22;;;;;;;5.73;3.47;;;3.10;77.60;;;;;;5065540;28;20427;-70
2021/04/04 05:02:48;;;;;;;6.30;3.50;;;3.00;77.40;;;;;;5056669;28;20438;-70
2021/04/04 05:05:16;;;;;;;10.85;4.13;;;3.00;77.70;;;;;;5083582;28;20473;-71
2021/04/04 05:07:44;;;;;;;6.65;3.63;;;2.90;78.10;;;;;;5077567;28;20258;-73
2021/04/04 05:10:12;;;;;;;9.57;4.55;;;2.90;78.60;;;;;;5065428;28;20234;-72
2021/04/04 05:12:54;;;;;;;7.07;3.80;;;2.90;79.20;;;;;;5069605;28;20207;-71
2021/04/04 05:15:22;;;;;;;9.70;4.07;;;2.90;79.30;;;;;;5072945;28;20525;-72
2021/04/04 05:17:49;;;;;;;10.13;3.80;;;2.90;79.20;;;;;;5071997;28;20469;-70
2021/04/04 05:20:17;;;;;;;5.87;3.83;;;2.90;79.20;;;;;;5072298;28;20422;-72
2021/04/04 05:22:43;;;;;;;7.20;4.10;;;3.00;79.00;;;;;;5072861;28;20418;-72
2021/04/04 05:25:09;;;;;;;12.23;4.83;;;3.00;78.70;;;;;;5072061;28;20512;-71
2021/04/04 05:27:35;;;;;;;7.47;3.92;;;3.00;78.90;;;;;;5059338;28;20484;-71
2021/04/04 05:30:10;;;;;;;9.33;3.87;;;3.00;78.90;;;;;;5072096;28;20207;-70
2021/04/04 05:32:49;;;;;;;7.90;4.00;;;3.10;78.40;;;;;;5071997;28;20421;-71
2021/04/04 05:35:19;;;;;;;7.97;4.37;;;3.10;78.30;;;;;;5071040;28;20425;-70
2021/04/04 05:37:46;;;;;;;10.33;4.60;;;3.10;77.80;;;;;;5071866;28;20456;-73
2021/04/04 05:40:20;;;;;;;7.47;4.40;;;3.10;77.80;;;;;;5071687;28;20418;-71
2021/04/04 05:42:52;;;;;;;11.00;4.17;;;3.10;78.00;;;;;;5071855;28;20428;-71
2021/04/04 05:45:45;;;;;;;5.50;3.60;;;3.20;77.60;;;;;;5071065;28;21041;-72
2021/04/04 05:48:38;;;;;;;7.43;4.67;;;3.20;77.60;;;;;;5071705;28;20474;-74
2021/04/04 05:51:16;;;;;;;9.67;4.53;;;3.20;77.60;;;;;;5067175;28;20431;-70
2021/04/04 05:53:54;;;;;;;10.40;4.87;;;3.20;77.80;;;;;;5071161;28;20438;-71
2021/04/04 05:56:32;;;;;;;10.40;5.33;;;3.20;78.00;;;;;;5071169;28;20465;-72
2021/04/04 05:59:23;;;;;;;10.37;5.10;;;3.20;77.80;;;;;;5071606;28;20426;-70
2021/04/04 06:02:05;;;;;;;10.23;4.83;;;3.20;77.30;;;;;;5049442;28;20485;-71
2021/04/04 06:04:46;;;;;;;17.13;7.73;;;3.20;77.30;;;;;;5071016;28;21067;-71
2021/04/04 06:07:26;;;;;;;14.73;6.63;;;3.30;77.60;;;;;;5075949;28;20442;-72
2021/04/04 06:10:05;;;;;;;21.07;9.50;;;3.30;77.80;;;;;;5054052;28;20423;-72
2021/04/04 06:12:44;;;;;;;16.77;7.83;;;3.30;78.30;;;;;;5066847;28;20414;-72
2021/04/04 06:15:22;;;;;;;18.53;8.50;;;3.40;78.90;;;;;;5072371;28;20912;-71
2021/04/04 06:18:06;;;;;;;21.23;9.20;;;3.40;79.60;;;;;;5073044;28;20436;-70
2021/04/04 06:20:44;;;;;;;20.93;8.10;;;3.60;80.00;;;;;;5074836;28;20418;-70
2021/04/04 06:23:39;;;;;;;15.20;8.50;;;3.90;79.30;;;;;;5073865;28;20430;-70
2021/04/04 06:26:29;;;;;;;17.13;8.40;;;4.10;77.30;;;;;;5070174;28;20442;-70
2021/04/04 06:29:40;;;;;;;15.03;8.90;;;4.10;77.00;;;;;;5072632;28;20509;-72
2021/04/04 06:32:20;;;;;;;21.53;9.07;;;4.20;76.80;;;;;;5044143;28;20796;-71
2021/04/04 06:34:55;;;;;;;19.50;8.97;;;4.20;76.50;;;;;;5075184;28;20428;-72
2021/04/04 06:37:49;;;;;;;19.80;9.37;;;4.20;76.40;;;;;;5063703;28;20441;-71
2021/04/04 06:40:30;;;;;;;18.73;8.53;;;4.20;76.20;;;;;;5076592;28;20414;-71
2021/04/04 06:43:17;;;;;;;17.10;8.93;;;4.30;75.40;;;;;;5083727;28;20417;-71
2021/04/04 06:45:43;;;;;;;16.63;8.67;;;4.30;75.40;;;;;;5078099;28;20504;-72
2021/04/04 06:48:29;;;;;;;17.10;8.50;;;4.40;75.40;;;;;;5071118;28;20406;-72
2021/04/04 06:51:07;;;;;;;24.43;8.83;;;4.40;75.50;;;;;;5070296;28;20927;-72
2021/04/04 06:53:53;;;;;;;21.83;8.70;;;4.40;75.40;;;;;;5065348;28;20508;-71
2021/04/04 06:56:34;;;;;;;19.07;9.47;;;4.50;75.20;;;;;;5067419;28;20430;-75
2021/04/04 06:59:33;;;;;;;18.30;8.77;;;4.60;75.10;;;;;;5065480;28;20431;-71
2021/04/04 07:02:05;;;;;;;14.40;7.80;;;4.60;74.50;;;;;;5059038;28;20414;-72
2021/04/04 07:04:45;;;;;;;16.03;7.93;;;4.70;73.50;;;;;;5069392;28;20469;-72
2021/04/04 07:07:38;;;;;;;14.90;7.03;;;4.80;72.70;;;;;;5070339;28;20511;-70
2021/04/04 07:10:13;;;;;;;12.87;7.20;;;4.90;71.80;;;;;;5060331;28;20433;-71
2021/04/04 07:13:03;;;;;;;13.07;7.60;;;5.00;71.10;;;;;;5071851;28;20414;-71
2021/04/04 07:15:57;;;;;;;15.17;7.00;;;5.10;70.80;;;;;;5070877;28;20820;-71
2021/04/04 07:18:57;;;;;;;12.53;7.53;;;5.20;70.40;;;;;;5073943;28;20415;-71
2021/04/04 07:21:55;;;;;;;14.97;7.00;;;5.40;69.90;;;;;;5062194;28;20425;-71
2021/04/04 07:24:20;;;;;;;9.27;6.70;;;5.50;68.60;;;;;;5074974;28;20835;-70
2021/04/04 07:27:06;;;;;;;10.20;6.33;;;5.60;68.60;;;;;;5078012;28;20448;-71
2021/04/04 07:29:51;;;;;;;15.73;7.47;;;5.70;68.00;;;;;;5067003;28;20233;-72
2021/04/04 07:32:41;;;;;;;15.83;7.63;;;5.70;67.20;;;;;;5077802;28;20413;-72
2021/04/04 07:35:21;;;;;;;15.37;7.83;;;5.80;67.20;;;;;;5079853;28;20417;-72
2021/04/04 07:38:01;;;;;;;16.20;7.30;;;6.00;66.90;;;;;;5079391;28;20505;-71
2021/04/04 07:41:01;;;;;;;13.27;7.43;;;6.10;66.90;;;;;;5083370;28;20426;-73
2021/04/04 07:43:42;;;;;;;11.27;7.13;;;6.10;66.60;;;;;;5075895;28;20417;-71
2021/04/04 07:46:25;;;;;;;12.90;8.10;;;6.30;66.70;;;;;;5075255;28;20438;-72
2021/04/04 07:49:11;;;;;;;15.33;8.50;;;6.40;66.60;;;;;;5075874;28;20916;-73
2021/04/04 07:51:40;;;;;;;17.30;8.30;;;6.50;66.30;;;;;;5073880;28;20422;-70
2021/04/04 07:54:18;;;;;;;15.60;8.60;;;6.60;66.10;;;;;;5078155;28;20524;-71
2021/04/04 07:56:47;;;;;;;17.97;7.83;;;6.70;65.60;;;;;;5082535;28;20464;-72
2021/04/04 07:59:31;;;;;;;14.47;8.10;;;6.80;64.70;;;;;;5077624;28;20440;-71
2021/04/04 08:02:09;;;;;;;15.20;7.50;;;6.90;64.10;;;;;;5080068;28;20429;-72
2021/04/04 08:04:48;;;;;;;12.60;7.10;;;6.90;63.50;;;;;;5074814;28;20469;-72
2021/04/04 08:07:41;;;;;;;12.17;6.30;;;6.90;63.40;;;;;;5074871;28;21258;-73
2021/04/04 08:10:09;;;;;;;13.67;6.40;;;7.00;63.20;;;;;;5065431;28;20486;-71
2021/04/04 08:12:49;;;;;;;16.70;7.70;;;7.10;62.60;;;;;;5076738;28;20421;-70
2021/04/04 08:15:23;;;;;;;15.67;5.67;;;7.20;62.00;;;;;;5075602;28;20470;-70
2021/04/04 08:17:49;;;;;;;14.50;7.03;;;7.30;61.60;;;;;;5075999;28;20456;-71
2021/04/04 08:20:27;;;;;;;12.20;6.77;;;7.40;61.00;;;;;;5073783;28;20437;-72
2021/04/04 08:23:06;;;;;;;14.20;7.27;;;7.50;60.70;;;;;;5064659;28;20429;-71
2021/04/04 08:25:40;;;;;;;17.87;7.33;;;7.40;60.90;;;;;;5070726;28;20504;-71
2021/04/04 08:28:29;;;;;;;12.70;7.30;;;7.40;60.90;;;;;;5071477;28;20429;-71
2021/04/04 08:30:58;;;;;;;15.03;7.47;;;7.50;60.90;;;;;;5060509;28;20418;-72
2021/04/04 08:33:32;;;;;;;14.40;7.60;;;7.60;60.30;;;;;;5072404;28;20414;-71
2021/04/04 08:36:00;;;;;;;16.90;6.47;;;7.70;59.70;;;;;;5066940;28;20435;-73
2021/04/04 08:38:32;;;;;;;13.77;7.97;;;7.80;59.50;;;;;;5069375;28;20418;-73
2021/04/04 08:41:00;;;;;;;15.43;7.13;;;7.80;59.60;;;;;;5073254;28;20433;-70
2021/04/04 08:43:27;;;;;;;14.33;7.30;;;7.90;59.50;;;;;;5072334;28;20418;-71
2021/04/04 08:45:52;;;;;;;13.30;7.40;;;8.10;58.90;;;;;;5067998;28;20453;-74
2021/04/04 08:48:19;;;;;;;11.97;7.47;;;8.10;58.70;;;;;;5070011;28;20418;-73
2021/04/04 08:50:48;;;;;;;13.47;7.97;;;8.20;58.40;;;;;;5073154;28;20180;-74
2021/04/04 08:53:32;;;;;;;22.73;11.23;;;8.20;58.10;;;;;;5071031;28;20479;-70
2021/04/04 08:56:00;;;;;;;15.27;7.80;;;8.30;58.20;;;;;;5073604;28;20461;-70
2021/04/04 08:58:35;;;;;;;15.83;8.30;;;8.40;57.70;;;;;;5072643;28;20450;-73
2021/04/04 09:01:08;;;;;;;17.03;7.40;;;8.50;57.80;;;;;;5057607;28;20830;-72
2021/04/04 09:03:37;;;;;;;14.53;6.97;;;8.60;57.40;;;;;;5086432;28;20469;-72
2021/04/04 09:06:07;;;;;;;10.83;6.40;;;8.80;56.90;;;;;;5070878;28;20430;-72
2021/04/04 09:08:34;;;;;;;13.57;6.60;;;8.90;56.20;;;;;;5069252;28;20824;-72
2021/04/04 09:11:01;;;;;;;15.13;7.10;;;9.00;55.60;;;;;;5071028;28;20422;-70
2021/04/04 09:13:34;;;;;;;15.20;7.07;;;9.10;55.60;;;;;;5070846;28;20750;-73
2021/04/04 09:16:10;;;;;;;11.07;5.93;;;9.10;55.30;;;;;;5068809;28;20450;-71
2021/04/04 09:18:52;;;;;;;12.10;6.83;;;9.20;54.20;;;;;;5071336;28;20536;-71
2021/04/04 09:21:19;;;;;;;13.33;7.00;;;9.20;54.20;;;;;;5060858;28;20414;-73
2021/04/04 09:23:48;;;;;;;10.50;6.43;;;9.20;54.90;;;;;;5071683;28;20553;-71
2021/04/04 09:26:22;;;;;;;14.47;7.10;;;9.20;54.40;;;;;;5071938;28;20474;-70
2021/04/04 09:28:50;;;;;;;14.10;6.40;;;9.20;54.00;;;;;;5072170;28;20421;-72
2021/04/04 09:31:24;;;;;;;15.73;6.40;;;9.30;54.10;;;;;;5072438;28;21121;-72
2021/04/04 09:34:13;;;;;;;10.77;4.37;;;9.40;52.60;;;;;;5073508;28;20414;-73
2021/04/04 09:36:43;;;;;;;12.93;6.13;;;9.50;49.50;;;;;;5075085;28;20453;-73
2021/04/04 09:39:11;;;;;;;14.37;5.97;;;9.60;50.10;;;;;;5071446;28;20982;-71
2021/04/04 09:41:39;;;;;;;11.37;4.90;;;9.60;50.50;;;;;;5072065;28;20765;-72
2021/04/04 09:44:07;;;;;;;6.37;4.47;;;9.70;46.70;;;;;;5066938;28;20497;-71
2021/04/04 09:46:33;;;;;;;8.47;3.30;;;9.70;46.70;;;;;;5067857;28;20462;-72
2021/04/04 09:48:59;;;;;;;8.33;4.40;;;9.70;44.30;;;;;;5069884;28;20424;-71
2021/04/04 09:51:25;;;;;;;8.33;3.93;;;9.80;45.80;;;;;;5069980;28;20604;-71
2021/04/04 09:53:57;;;;;;;8.23;4.57;;;9.80;44.90;;;;;;5069529;28;20494;-72
2021/04/04 09:56:31;;;;;;;9.50;4.50;;;10.00;45.80;;;;;;5068770;28;20701;-71
2021/04/04 09:58:57;;;;;;;10.53;4.63;;;10.10;44.60;;;;;;5070067;28;20422;-71
2021/04/04 10:01:28;;;;;;;7.30;4.40;;;10.10;45.70;;;;;;5073634;28;20426;-72
2021/04/04 10:04:05;;;;;;;7.47;3.90;;;10.20;45.40;;;;;;5075774;28;20507;-70
2021/04/04 10:06:35;;;;;;;8.07;4.00;;;10.00;43.40;;;;;;5069590;28;20438;-73
2021/04/04 10:09:07;;;;;;;11.13;5.33;;;9.90;44.60;;;;;;5070045;28;20497;-73
2021/04/04 10:11:34;;;;;;;8.13;4.00;;;9.90;44.90;;;;;;5070145;28;20429;-72
2021/04/04 10:14:18;;;;;;;7.33;3.83;;;10.00;44.60;;;;;;5066241;28;20494;-72
2021/04/04 10:16:44;;;;;;;4.97;3.00;;;10.00;41.80;;;;;;5070814;28;20456;-72
2021/04/04 10:19:20;;;;;;;5.00;3.03;;;10.10;41.90;;;;;;5072870;28;20430;-74
2021/04/04 10:21:59;;;;;;;4.23;2.77;;;10.40;40.00;;;;;;5071623;28;20437;-73
2021/04/04 10:24:32;;;;;;;5.17;2.50;;;10.50;38.00;;;;;;5058656;28;20509;-71
2021/04/04 10:27:19;;;;;;;9.30;4.20;;;10.70;38.00;;;;;;5068995;28;20456;-73
2021/04/04 10:29:47;;;;;;;7.53;4.23;;;10.80;39.80;;;;;;5073780;28;20454;-72
2021/04/04 10:32:13;;;;;;;9.43;4.20;;;10.80;39.80;;;;;;5069032;28;20425;-71
2021/04/04 10:34:46;;;;;;;9.10;4.20;;;10.90;39.00;;;;;;5067963;28;20418;-73
2021/04/04 10:37:12;;;;;;;10.20;4.40;;;11.00;39.60;;;;;;5066464;28;20531;-71
2021/04/04 10:39:39;;;;;;;6.70;3.53;;;11.00;40.00;;;;;;5066890;28;20875;-74
2021/04/04 10:42:14;;;;;;;7.73;4.10;;;11.20;39.80;;;;;;5067907;28;20875;-72
2021/04/04 10:44:41;;;;;;;6.97;4.80;;;11.40;40.40;;;;;;5069752;28;21300;-70
2021/04/04 10:47:23;;;;;;;7.80;4.50;;;11.50;40.30;;;;;;5067270;28;20541;-73
2021/04/04 10:49:49;;;;;;;8.30;4.57;;;11.50;40.20;;;;;;5069723;28;20517;-72
2021/04/04 10:52:17;;;;;;;6.60;3.90;;;11.80;39.60;;;;;;5068464;28;20442;-71
2021/04/04 10:54:43;;;;;;;8.73;4.07;;;12.00;37.50;;;;;;5068412;28;20559;-72
2021/04/04 10:57:09;;;;;;;8.63;4.07;;;12.30;37.50;;;;;;5069301;28;20937;-73
2021/04/04 10:59:36;;;;;;;5.77;3.90;;;12.40;36.60;;;;;;5067595;28;20685;-74
2021/04/04 11:02:03;;;;;;;8.47;4.00;;;12.70;35.90;;;;;;5064797;28;20418;-72
2021/04/04 11:04:31;;;;;;;6.43;3.83;;;12.90;34.80;;;;;;5073288;28;20506;-72
2021/04/04 11:07:00;;;;;;;6.00;3.87;;;12.80;35.30;;;;;;5073300;28;20502;-72
2021/04/04 11:09:26;;;;;;;11.17;5.13;;;12.50;35.30;;;;;;5071080;28;20422;-74
2021/04/04 11:11:58;;;;;;;4.70;3.57;;;12.70;36.20;;;;;;5065324;28;20446;-72
2021/04/04 11:14:25;;;;;;;6.90;4.23;;;12.80;34.70;;;;;;5080003;28;20418;-74
2021/04/04 11:16:59;;;;;;;6.90;3.50;;;12.80;35.50;;;;;;5071194;28;20526;-71
2021/04/04 11:19:27;;;;;;;9.43;4.30;;;13.10;33.90;;;;;;5068760;28;20425;-72
2021/04/04 11:21:54;;;;;;;6.77;4.00;;;13.30;34.40;;;;;;5068492;28;20429;-72
2021/04/04 11:24:22;;;;;;;4.93;3.90;;;13.30;33.60;;;;;;5067481;28;20469;-72
2021/04/04 11:26:57;;;;;;;6.47;3.23;;;13.70;34.10;;;;;;5068208;28;20512;-71
2021/04/04 11:29:24;;;;;;;9.20;4.13;;;14.30;32.80;;;;;;5068706;28;20422;-73
2021/04/04 11:31:51;;;;;;;12.53;4.37;;;14.70;32.30;;;;;;5068646;28;20427;-72
2021/04/04 11:34:33;;;;;;;9.47;3.93;;;14.60;32.40;;;;;;5067523;28;20432;-72
2021/04/04 11:37:04;;;;;;;7.00;3.60;;;14.00;32.50;;;;;;5067978;28;20442;-72
2021/04/04 11:39:30;;;;;;;5.47;3.43;;;14.10;32.90;;;;;;5069986;28;20465;-73
2021/04/04 11:41:58;;;;;;;6.50;4.30;;;14.10;32.90;;;;;;5069610;28;20508;-73
2021/04/04 11:44:31;;;;;;;8.70;3.80;;;14.10;32.90;;;;;;5068141;28;20470;-72
2021/04/04 11:47:24;;;;;;;5.80;4.30;;;13.90;33.30;;;;;;5070320;28;20438;-71
2021/04/04 11:49:58;;;;;;;8.23;4.50;;;13.70;34.10;;;;;;5090661;28;20454;-72
2021/04/04 11:52:35;;;;;;;6.63;3.70;;;13.30;34.50;;;;;;5069015;28;20434;-70
2021/04/04 11:55:01;;;;;;;8.37;3.80;;;13.70;34.70;;;;;;5069498;28;20418;-71
2021/04/04 11:57:31;;;;;;;4.90;3.77;;;14.30;32.90;;;;;;5068427;28;20535;-72
2021/04/04 12:00:03;;;;;;;8.03;4.07;;;14.00;32.90;;;;;;5062757;28;20177;-71
2021/04/04 12:02:30;;;;;;;7.40;4.20;;;13.60;33.50;;;;;;5062758;28;20461;-76
2021/04/04 12:05:39;;;;;;;5.90;3.87;;;13.50;34.30;;;;;;5069237;28;20494;-71
2021/04/04 12:08:06;;;;;;;7.83;3.93;;;13.40;34.40;;;;;;5008214;28;20432;-71
2021/04/04 12:10:37;;;;;;;7.83;4.57;;;13.60;34.10;;;;;;5009182;28;20437;-73
2021/04/04 12:13:11;;;;;;;6.73;4.13;;;13.80;32.90;;;;;;5010631;28;20638;-73
2021/04/04 12:15:37;;;;;;;9.23;4.13;;;13.90;33.10;;;;;;5011204;28;20444;-70
2021/04/04 12:18:03;;;;;;;9.43;4.40;;;14.10;32.70;;;;;;5011299;28;20802;-73
2021/04/04 12:20:34;;;;;;;6.37;3.80;;;14.00;32.80;;;;;;4995638;28;20196;-72
2021/04/04 12:23:08;;;;;;;7.30;4.53;;;13.70;33.20;;;;;;5012402;28;20193;-71
2021/04/04 12:25:34;;;;;;;6.67;4.30;;;13.60;33.70;;;;;;5011017;28;20476;-68
2021/04/04 12:28:00;;;;;;;8.73;4.73;;;13.80;32.90;;;;;;5012368;28;20590;-70
2021/04/04 12:30:40;;;;;;;8.13;4.30;;;13.90;32.80;;;;;;5017437;28;20231;-72
2021/04/04 12:33:08;;;;;;;5.67;3.90;;;14.10;32.10;;;;;;5007158;28;21778;-71
2021/04/04 12:35:37;;;;;;;9.07;4.30;;;14.40;32.30;;;;;;4994820;28;20477;-71
2021/04/04 12:38:04;;;;;;;8.43;4.10;;;14.50;32.00;;;;;;4993291;28;20469;-71
2021/04/04 12:40:33;;;;;;;11.73;4.07;;;14.80;31.10;;;;;;5008877;28;20473;-71
2021/04/04 12:43:01;;;;;;;11.07;4.37;;;14.60;31.50;;;;;;5024756;28;20441;-70
2021/04/04 12:45:35;;;;;;;6.67;3.70;;;14.30;32.30;;;;;;5069433;28;20485;-70
2021/04/04 12:48:01;;;;;;;8.20;4.10;;;14.20;32.50;;;;;;5069983;28;20458;-69
2021/04/04 12:50:28;;;;;;;9.50;4.30;;;14.00;32.40;;;;;;5073128;28;20421;-73
2021/04/04 12:52:54;;;;;;;5.43;3.83;;;13.80;32.80;;;;;;5073715;28;20450;-73
2021/04/04 12:55:25;;;;;;;7.73;4.10;;;14.00;33.20;;;;;;5069732;28;20926;-70
2021/04/04 12:57:59;;;;;;;9.60;4.57;;;14.00;33.10;;;;;;5072197;28;20417;-72
2021/04/04 13:00:31;;;;;;;5.80;3.80;;;13.80;33.70;;;;;;5079475;28;20425;-71
2021/04/04 13:03:07;;;;;;;11.73;5.67;;;14.20;32.70;;;;;;5071977;28;20433;-70
2021/04/04 13:05:37;;;;;;;8.27;4.93;;;14.20;32.30;;;;;;5064019;28;20571;-71
2021/04/04 13:08:19;;;;;;;7.20;5.07;;;14.00;33.10;;;;;;5070669;28;20434;-71
2021/04/04 13:10:52;;;;;;;7.60;4.17;;;14.20;32.30;;;;;;5072095;28;20513;-70
2021/04/04 13:13:20;;;;;;;8.80;4.20;;;14.10;32.00;;;;;;5072910;28;20426;-71
2021/04/04 13:15:47;;;;;;;9.20;4.70;;;14.10;32.10;;;;;;5076067;28;20507;-72